Terminal Aerodrome Forecast
Issued by NWS

Home | Current Version | Previous Version | Text Only | Print | Product List | Glossary Off
Versions: 1 2 3 4 5 6 7 8 9 10 11 12 13 14 15 16 17 18 19 20 21 22 23 24

101
FTUS43 KICT 252320
TAFRSL
TAF
KRSL 252320Z 2600/2624 35008KT P6SM SCT030
     FM260300 05006KT P6SM SCT035
     FM261000 11007KT 6SM BR OVC010
      TEMPO 2610/2614 OVC008
     FM261600 17015G22KT P6SM SCT025 SCT150
     FM262100 17017G24KT P6SM VCTS SCT040CB BKN100=

USA.gov is the U.S. government's official web portal to all federal, state and local government web resources and services.